KTOL/TOL METAR and TAF weather

Enter ICAO airport designator
Station Type Date Time Source
KTOL METAR 2018/12/13 20:52 UTC NOAA

KTOL 132052Z 17004KT 10SM BKN024 06/M02 A3017 RMK AO2 SLP225 T00611017 53008


Station Type Date Time Source
KTOL Decoded METAR 2018/12/13 20:52 UTC NOAA

TOLEDO EXPRESS AIRPORT, OH, United States (KTOL) 41-35N 083-48W 210M
Dec 13, 2018 - 03:52 PM EST / 2018.12.13 2052 UTC
Wind: from the S (170 degrees) at 5 MPH (4 KT):0
Visibility: 10 mile(s):0
Sky conditions: mostly cloudy
Temperature: 43.0 F (6.1 C)
Dew Point: 28.9 F (-1.7 C)
Relative Humidity: 57%
Pressure (altimeter): 30.17 in. Hg (1021 hPa)
Pressure tendency: 0.02 inches (0.8 hPa) higher than three hours ago
ob: KTOL 132052Z 17004KT 10SM BKN024 06/M02 A3017 RMK AO2 SLP225 T00611017 53008
cycle: 21

Station Type Date Time Source
KTOL TAF 2018/12/13 18:45 UTC NOAA

TAF KTOL 131741Z 1318/1418 14005KT P6SM FEW020 SCT250
TEMPO 1400/1404 BKN020 OVC090
FM140400 11005KT P6SM VCSH BKN030 OVC090
FM141100 VRB03KT P6SM SCT030 OVC060


Example: see airport list